sensor_id;sensor_type;location;lat;lon;timestamp;pressure;altitude;pressure_sealevel;temperature;humidity
21240;BME280;10778;48.962;9.018;2023-02-13T00:02:15;101105.13;;;-1.67;100.00
21240;BME280;10778;48.962;9.018;2023-02-13T00:04:42;101100.88;;;-1.73;100.00
21240;BME280;10778;48.962;9.018;2023-02-13T00:07:09;101106.91;;;-1.74;100.00
21240;BME280;10778;48.962;9.018;2023-02-13T00:09:37;101103.50;;;-1.79;100.00
21240;BME280;10778;48.962;9.018;2023-02-13T00:12:05;101096.63;;;-1.82;100.00
21240;BME280;10778;48.962;9.018;2023-02-13T00:14:36;101100.03;;;-1.80;100.00
21240;BME280;10778;48.962;9.018;2023-02-13T00:17:04;101091.50;;;-1.85;100.00
21240;BME280;10778;48.962;9.018;2023-02-13T00:19:30;101097.47;;;-1.80;100.00
21240;BME280;10778;48.962;9.018;2023-02-13T00:21:56;101091.47;;;-1.82;100.00
21240;BME280;10778;48.962;9.018;2023-02-13T00:24:22;101096.63;;;-1.82;100.00
21240;BME280;10778;48.962;9.018;2023-02-13T00:26:48;101092.34;;;-1.84;100.00
21240;BME280;10778;48.962;9.018;2023-02-13T00:29:15;101092.34;;;-1.84;100.00
21240;BME280;10778;48.962;9.018;2023-02-13T00:31:41;101094.06;;;-1.83;100.00
21240;BME280;10778;48.962;9.018;2023-02-13T00:34:07;101092.38;;;-1.89;100.00
21240;BME280;10778;48.962;9.018;2023-02-13T00:36:34;101097.56;;;-1.94;100.00
21240;BME280;10778;48.962;9.018;2023-02-13T00:39:00;101092.44;;;-1.97;100.00
21240;BME280;10778;48.962;9.018;2023-02-13T00:41:26;101094.13;;;-1.97;100.00
21240;BME280;10778;48.962;9.018;2023-02-13T00:43:52;101094.19;;;-2.07;100.00
21240;BME280;10778;48.962;9.018;2023-02-13T00:46:18;101094.19;;;-2.05;100.00
21240;BME280;10778;48.962;9.018;2023-02-13T00:48:45;101097.66;;;-2.08;100.00
21240;BME280;10778;48.962;9.018;2023-02-13T00:51:11;101088.19;;;-2.09;100.00
21240;BME280;10778;48.962;9.018;2023-02-13T00:53:37;101093.34;;;-2.10;100.00
21240;BME280;10778;48.962;9.018;2023-02-13T00:56:05;101088.19;;;-2.10;100.00
21240;BME280;10778;48.962;9.018;2023-02-13T00:58:31;101097.66;;;-2.12;100.00
21240;BME280;10778;48.962;9.018;2023-02-13T01:00:58;101094.22;;;-2.16;100.00
21240;BME280;10778;48.962;9.018;2023-02-13T01:03:24;101095.94;;;-2.13;100.00
21240;BME280;10778;48.962;9.018;2023-02-13T01:05:51;101109.72;;;-2.15;100.00
21240;BME280;10778;48.962;9.018;2023-02-13T01:08:18;101099.44;;;-2.22;100.00
21240;BME280;10778;48.962;9.018;2023-02-13T01:10:46;101090.78;;;-2.15;100.00
21240;BME280;10778;48.962;9.018;2023-02-13T01:13:14;101096.84;;;-2.18;100.00
21240;BME280;10778;48.962;9.018;2023-02-13T01:15:41;101100.25;;;-2.12;100.00
21240;BME280;10778;48.962;9.018;2023-02-13T01:18:08;101098.50;;;-2.10;100.00
21240;BME280;10778;48.962;9.018;2023-02-13T01:20:35;101100.25;;;-2.17;100.00
21240;BME280;10778;48.962;9.018;2023-02-13T01:23:01;101100.25;;;-2.16;100.00
21240;BME280;10778;48.962;9.018;2023-02-13T01:25:27;101095.09;;;-2.16;100.00
21240;BME280;10778;48.962;9.018;2023-02-13T01:27:55;101089.06;;;-2.16;100.00
21240;BME280;10778;48.962;9.018;2023-02-13T01:30:21;101095.97;;;-2.17;100.00
21240;BME280;10778;48.962;9.018;2023-02-13T01:32:47;101084.81;;;-2.20;100.00
21240;BME280;10778;48.962;9.018;2023-02-13T01:35:14;101095.09;;;-2.16;100.00
21240;BME280;10778;48.962;9.018;2023-02-13T01:37:41;101083.94;;;-2.22;100.00
21240;BME280;10778;48.962;9.018;2023-02-13T01:40:10;101085.66;;;-2.21;100.00
21240;BME280;10778;48.962;9.018;2023-02-13T01:42:37;101089.97;;;-2.19;100.00
21240;BME280;10778;48.962;9.018;2023-02-13T01:47:53;101089.97;;;-2.23;100.00
21240;BME280;10778;48.962;9.018;2023-02-13T01:55:53;101081.41;;;-2.32;100.00
21240;BME280;10778;48.962;9.018;2023-02-13T01:58:24;101084.84;;;-2.31;100.00
21240;BME280;10778;48.962;9.018;2023-02-13T02:00:52;101080.56;;;-2.34;100.00
21240;BME280;10778;48.962;9.018;2023-02-13T02:05:50;101087.44;;;-2.36;100.00
21240;BME280;10778;48.962;9.018;2023-02-13T02:08:18;101078.03;;;-2.38;100.00
21240;BME280;10778;48.962;9.018;2023-02-13T02:10:51;101088.34;;;-2.48;100.00
21240;BME280;10778;48.962;9.018;2023-02-13T02:13:19;101086.63;;;-2.50;100.00
21240;BME280;10778;48.962;9.018;2023-02-13T02:15:47;101087.50;;;-2.50;100.00
21240;BME280;10778;48.962;9.018;2023-02-13T02:18:16;101093.50;;;-2.48;100.00
21240;BME280;10778;48.962;9.018;2023-02-13T02:34:55;101084.06;;;-2.50;100.00
21240;BME280;10778;48.962;9.018;2023-02-13T02:43:47;101078.06;;;-2.52;100.00
21240;BME280;10778;48.962;9.018;2023-02-13T02:46:33;101084.94;;;-2.59;100.00
21240;BME280;10778;48.962;9.018;2023-02-13T02:49:13;101085.84;;;-2.62;100.00
21240;BME280;10778;48.962;9.018;2023-02-13T02:52:07;101076.38;;;-2.63;100.00
21240;BME280;10778;48.962;9.018;2023-02-13T02:54:51;101082.41;;;-2.64;100.00
21240;BME280;10778;48.962;9.018;2023-02-13T02:57:35;101082.41;;;-2.70;100.00
21240;BME280;10778;48.962;9.018;2023-02-13T03:00:23;101077.28;;;-2.81;100.00
21240;BME280;10778;48.962;9.018;2023-02-13T03:03:16;101078.16;;;-2.85;100.00
21240;BME280;10778;48.962;9.018;2023-02-13T03:06:03;101074.72;;;-2.89;100.00
21240;BME280;10778;48.962;9.018;2023-02-13T03:08:39;101078.19;;;-2.96;100.00
21240;BME280;10778;48.962;9.018;2023-02-13T03:11:25;101077.31;;;-3.00;100.00
21240;BME280;10778;48.962;9.018;2023-02-13T03:14:10;101080.75;;;-2.94;100.00
21240;BME280;10778;48.962;9.018;2023-02-13T03:16:39;101081.63;;;-2.97;100.00
21240;BME280;10778;48.962;9.018;2023-02-13T03:33:10;101091.03;;;-2.85;100.00
21240;BME280;10778;48.962;9.018;2023-02-13T03:41:36;101097.06;;;-2.97;100.00
21240;BME280;10778;48.962;9.018;2023-02-13T03:46:46;101100.50;;;-3.23;100.00
21240;BME280;10778;48.962;9.018;2023-02-13T03:49:30;101107.38;;;-3.34;100.00
21240;BME280;10778;48.962;9.018;2023-02-13T03:55:13;101112.53;;;-3.44;100.00
21240;BME280;10778;48.962;9.018;2023-02-13T03:58:04;101114.25;;;-3.35;100.00
21240;BME280;10778;48.962;9.018;2023-02-13T04:00:53;101118.56;;;-3.29;100.00
21240;BME280;10778;48.962;9.018;2023-02-13T04:03:46;101122.81;;;-3.30;100.00
21240;BME280;10778;48.962;9.018;2023-02-13T04:06:30;101116.84;;;-3.22;100.00
21240;BME280;10778;48.962;9.018;2023-02-13T04:08:57;101116.81;;;-3.18;100.00
21240;BME280;10778;48.962;9.018;2023-02-13T04:11:31;101124.53;;;-3.16;100.00
21240;BME280;10778;48.962;9.018;2023-02-13T04:14:13;101124.53;;;-3.21;100.00
21240;BME280;10778;48.962;9.018;2023-02-13T04:16:51;101123.69;;;-3.31;100.00
21240;BME280;10778;48.962;9.018;2023-02-13T04:19:21;101124.53;;;-3.39;100.00
21240;BME280;10778;48.962;9.018;2023-02-13T04:21:56;101127.13;;;-3.38;100.00
21240;BME280;10778;48.962;9.018;2023-02-13T04:24:23;101127.97;;;-3.34;100.00
21240;BME280;10778;48.962;9.018;2023-02-13T04:26:50;101129.72;;;-3.33;100.00
21240;BME280;10778;48.962;9.018;2023-02-13T04:29:17;101130.53;;;-3.30;100.00
21240;BME280;10778;48.962;9.018;2023-02-13T04:31:43;101134.00;;;-3.32;100.00
21240;BME280;10778;48.962;9.018;2023-02-13T04:34:09;101140.00;;;-3.33;100.00
21240;BME280;10778;48.962;9.018;2023-02-13T04:36:35;101139.97;;;-3.44;100.00
21240;BME280;10778;48.962;9.018;2023-02-13T04:39:01;101142.56;;;-3.46;100.00
21240;BME280;10778;48.962;9.018;2023-02-13T04:41:27;101133.97;;;-3.41;100.00
21240;BME280;10778;48.962;9.018;2023-02-13T04:43:53;101138.25;;;-3.44;100.00
21240;BME280;10778;48.962;9.018;2023-02-13T04:46:19;101136.53;;;-3.43;100.00
21240;BME280;10778;48.962;9.018;2023-02-13T04:48:44;101133.13;;;-3.40;100.00
21240;BME280;10778;48.962;9.018;2023-02-13T04:51:10;101136.56;;;-3.41;100.00
21240;BME280;10778;48.962;9.018;2023-02-13T04:53:36;101131.41;;;-3.41;100.00
21240;BME280;10778;48.962;9.018;2023-02-13T04:56:03;101130.56;;;-3.39;100.00
21240;BME280;10778;48.962;9.018;2023-02-13T04:58:29;101128.84;;;-3.32;100.00
21240;BME280;10778;48.962;9.018;2023-02-13T05:00:55;101131.41;;;-3.29;100.00
21240;BME280;10778;48.962;9.018;2023-02-13T05:03:22;101135.69;;;-3.19;100.00
21240;BME280;10778;48.962;9.018;2023-02-13T05:05:48;101136.56;;;-3.03;100.00
21240;BME280;10778;48.962;9.018;2023-02-13T05:08:14;101139.13;;;-3.04;100.00
21240;BME280;10778;48.962;9.018;2023-02-13T05:10:40;101138.25;;;-3.03;100.00
21240;BME280;10778;48.962;9.018;2023-02-13T05:13:06;101140.00;;;-3.08;100.00
21240;BME280;10778;48.962;9.018;2023-02-13T05:15:32;101136.56;;;-3.03;100.00
21240;BME280;10778;48.962;9.018;2023-02-13T05:17:59;101133.97;;;-3.04;100.00
21240;BME280;10778;48.962;9.018;2023-02-13T05:20:25;101134.84;;;-3.05;100.00
21240;BME280;10778;48.962;9.018;2023-02-13T05:22:52;101134.84;;;-3.05;100.00
21240;BME280;10778;48.962;9.018;2023-02-13T05:25:39;101134.00;;;-3.06;100.00
21240;BME280;10778;48.962;9.018;2023-02-13T05:28:06;101131.41;;;-3.07;100.00
21240;BME280;10778;48.962;9.018;2023-02-13T05:30:52;101127.13;;;-3.15;100.00
21240;BME280;10778;48.962;9.018;2023-02-13T05:33:18;101139.97;;;-3.18;100.00
21240;BME280;10778;48.962;9.018;2023-02-13T05:35:44;101130.53;;;-3.19;100.00
21240;BME280;10778;48.962;9.018;2023-02-13T05:38:10;101136.56;;;-3.18;100.00
21240;BME280;10778;48.962;9.018;2023-02-13T05:40:36;101140.00;;;-3.19;100.00
21240;BME280;10778;48.962;9.018;2023-02-13T05:43:02;101142.56;;;-3.24;100.00
21240;BME280;10778;48.962;9.018;2023-02-13T05:45:28;101142.59;;;-3.22;100.00
21240;BME280;10778;48.962;9.018;2023-02-13T05:47:54;101140.84;;;-3.20;100.00
21240;BME280;10778;48.962;9.018;2023-02-13T05:50:20;101137.41;;;-3.05;100.00
21240;BME280;10778;48.962;9.018;2023-02-13T05:52:46;101142.59;;;-3.07;100.00
21240;BME280;10778;48.962;9.018;2023-02-13T05:55:12;101141.72;;;-3.07;100.00
21240;BME280;10778;48.962;9.018;2023-02-13T05:57:38;101133.13;;;-3.05;100.00
21240;BME280;10778;48.962;9.018;2023-02-13T06:00:04;101140.84;;;-3.02;100.00
21240;BME280;10778;48.962;9.018;2023-02-13T06:02:31;101140.84;;;-2.97;100.00
21240;BME280;10778;48.962;9.018;2023-02-13T06:04:57;101139.13;;;-2.82;100.00
21240;BME280;10778;48.962;9.018;2023-02-13T06:07:23;101136.53;;;-2.76;100.00
21240;BME280;10778;48.962;9.018;2023-02-13T06:09:49;101138.22;;;-2.66;100.00
21240;BME280;10778;48.962;9.018;2023-02-13T06:12:15;101130.50;;;-2.64;100.00
21240;BME280;10778;48.962;9.018;2023-02-13T06:14:41;101129.63;;;-2.60;100.00
21240;BME280;10778;48.962;9.018;2023-02-13T06:17:07;101133.97;;;-2.76;100.00
21240;BME280;10778;48.962;9.018;2023-02-13T06:19:33;101138.25;;;-2.78;100.00
21240;BME280;10778;48.962;9.018;2023-02-13T06:21:59;101133.06;;;-2.66;100.00
21240;BME280;10778;48.962;9.018;2023-02-13T06:24:25;101136.53;;;-2.64;100.00
21240;BME280;10778;48.962;9.018;2023-02-13T06:26:51;101133.91;;;-2.62;100.00
21240;BME280;10778;48.962;9.018;2023-02-13T06:29:17;101132.19;;;-2.46;100.00
21240;BME280;10778;48.962;9.018;2023-02-13T06:31:43;101131.31;;;-2.50;100.00
21240;BME280;10778;48.962;9.018;2023-02-13T06:34:09;101138.16;;;-2.41;100.00
21240;BME280;10778;48.962;9.018;2023-02-13T06:36:35;101133.03;;;-2.49;100.00
21240;BME280;10778;48.962;9.018;2023-02-13T06:39:03;101139.91;;;-2.52;100.00
21240;BME280;10778;48.962;9.018;2023-02-13T06:41:29;101135.63;;;-2.53;100.00
21240;BME280;10778;48.962;9.018;2023-02-13T06:43:55;101136.44;;;-2.44;100.00
21240;BME280;10778;48.962;9.018;2023-02-13T06:46:21;101140.75;;;-2.41;100.00
21240;BME280;10778;48.962;9.018;2023-02-13T06:48:47;101144.16;;;-2.40;100.00
21240;BME280;10778;48.962;9.018;2023-02-13T06:51:13;101142.47;;;-2.40;100.00
21240;BME280;10778;48.962;9.018;2023-02-13T06:53:39;101133.88;;;-2.37;100.00
21240;BME280;10778;48.962;9.018;2023-02-13T06:56:05;101145.03;;;-2.35;100.00
21240;BME280;10778;48.962;9.018;2023-02-13T06:58:32;101138.19;;;-2.39;100.00
21240;BME280;10778;48.962;9.018;2023-02-13T07:00:59;101142.47;;;-2.40;100.00
21240;BME280;10778;48.962;9.018;2023-02-13T07:03:25;101147.59;;;-2.32;100.00
21240;BME280;10778;48.962;9.018;2023-02-13T07:05:51;101137.28;;;-2.31;100.00
21240;BME280;10778;48.962;9.018;2023-02-13T07:08:17;101142.41;;;-2.29;100.00
21240;BME280;10778;48.962;9.018;2023-02-13T07:10:43;101143.28;;;-2.32;100.00
21240;BME280;10778;48.962;9.018;2023-02-13T07:13:09;101146.69;;;-2.20;100.00
21240;BME280;10778;48.962;9.018;2023-02-13T07:15:36;101155.28;;;-2.17;100.00
21240;BME280;10778;48.962;9.018;2023-02-13T07:18:03;101155.28;;;-2.21;100.00
21240;BME280;10778;48.962;9.018;2023-02-13T07:20:29;101160.41;;;-2.10;100.00
21240;BME280;10778;48.962;9.018;2023-02-13T07:23:00;101154.38;;;-2.14;100.00
21240;BME280;10778;48.962;9.018;2023-02-13T07:25:26;101156.97;;;-2.11;100.00
21240;BME280;10778;48.962;9.018;2023-02-13T07:27:52;101150.91;;;-2.04;100.00
21240;BME280;10778;48.962;9.018;2023-02-13T07:30:18;101156.97;;;-2.08;100.00
21240;BME280;10778;48.962;9.018;2023-02-13T07:32:44;101146.66;;;-2.08;100.00
21240;BME280;10778;48.962;9.018;2023-02-13T07:35:10;101160.38;;;-2.01;100.00
21240;BME280;10778;48.962;9.018;2023-02-13T07:37:36;101156.06;;;-1.94;100.00
21240;BME280;10778;48.962;9.018;2023-02-13T07:40:03;101160.28;;;-1.84;100.00
21240;BME280;10778;48.962;9.018;2023-02-13T07:42:33;101160.31;;;-1.92;100.00
21240;BME280;10778;48.962;9.018;2023-02-13T07:44:59;101156.03;;;-1.87;100.00
21240;BME280;10778;48.962;9.018;2023-02-13T07:47:26;101154.22;;;-1.80;100.00
21240;BME280;10778;48.962;9.018;2023-02-13T07:49:52;101148.69;;;-0.27;100.00
21240;BME280;10778;48.962;9.018;2023-02-13T07:52:19;101158.00;;;-0.15;100.00
21240;BME280;10778;48.962;9.018;2023-02-13T07:54:45;101152.31;;;0.25;100.00
21240;BME280;10778;48.962;9.018;2023-02-13T07:57:15;101159.44;;;0.08;100.00
21240;BME280;10778;48.962;9.018;2023-02-13T07:59:41;101161.47;;;-0.15;100.00
21240;BME280;10778;48.962;9.018;2023-02-13T08:02:12;101161.47;;;-0.16;100.00
21240;BME280;10778;48.962;9.018;2023-02-13T08:04:39;101158.19;;;-0.31;100.00
21240;BME280;10778;48.962;9.018;2023-02-13T08:07:05;101165.34;;;0.21;100.00
21240;BME280;10778;48.962;9.018;2023-02-13T08:09:31;101160.13;;;0.24;100.00
21240;BME280;10778;48.962;9.018;2023-02-13T08:12:15;101164.03;;;-0.13;100.00
21240;BME280;10778;48.962;9.018;2023-02-13T08:14:41;101156.66;;;0.23;100.00
21240;BME280;10778;48.962;9.018;2023-02-13T08:17:08;101152.34;;;0.83;100.00
21240;BME280;10778;48.962;9.018;2023-02-13T08:19:34;101143.59;;;1.39;100.00
21240;BME280;10778;48.962;9.018;2023-02-13T08:22:00;101147.19;;;0.82;100.00
21240;BME280;10778;48.962;9.018;2023-02-13T08:24:26;101150.13;;;0.60;100.00
21240;BME280;10778;48.962;9.018;2023-02-13T08:26:52;101148.94;;;0.22;100.00
21240;BME280;10778;48.962;9.018;2023-02-13T08:29:20;101144.00;;;0.03;100.00
21240;BME280;10778;48.962;9.018;2023-02-13T08:31:46;101138.06;;;-0.04;100.00
21240;BME280;10778;48.962;9.018;2023-02-13T08:34:12;101147.56;;;-0.06;100.00
21240;BME280;10778;48.962;9.018;2023-02-13T08:36:38;101136.44;;;-0.12;100.00
21240;BME280;10778;48.962;9.018;2023-02-13T08:39:04;101149.50;;;-0.23;100.00
21240;BME280;10778;48.962;9.018;2023-02-13T08:41:30;101144.47;;;-0.36;100.00
21240;BME280;10778;48.962;9.018;2023-02-13T08:43:56;101140.97;;;-0.32;100.00
21240;BME280;10778;48.962;9.018;2023-02-13T08:46:22;101142.56;;;-0.21;100.00
21240;BME280;10778;48.962;9.018;2023-02-13T08:48:48;101139.72;;;0.01;100.00
21240;BME280;10778;48.962;9.018;2023-02-13T08:51:14;101137.81;;;0.15;100.00
21240;BME280;10778;48.962;9.018;2023-02-13T08:53:40;101134.84;;;0.43;100.00
21240;BME280;10778;48.962;9.018;2023-02-13T08:56:07;101128.72;;;0.47;100.00
21240;BME280;10778;48.962;9.018;2023-02-13T08:58:33;101130.72;;;0.86;100.00
21240;BME280;10778;48.962;9.018;2023-02-13T09:01:03;101131.91;;;1.62;100.00
21240;BME280;10778;48.962;9.018;2023-02-13T09:03:29;101125.53;;;2.20;95.43
21240;BME280;10778;48.962;9.018;2023-02-13T09:05:58;101131.84;;;2.49;94.22
21240;BME280;10778;48.962;9.018;2023-02-13T09:08:24;101125.00;;;3.80;91.19
21240;BME280;10778;48.962;9.018;2023-02-13T09:10:56;101116.47;;;6.11;79.30
21240;BME280;10778;48.962;9.018;2023-02-13T09:13:22;101109.13;;;6.87;73.38
21240;BME280;10778;48.962;9.018;2023-02-13T09:15:48;101105.78;;;7.83;70.18
21240;BME280;10778;48.962;9.018;2023-02-13T09:18:15;101108.06;;;8.10;67.65
21240;BME280;10778;48.962;9.018;2023-02-13T09:20:40;101109.06;;;8.99;65.82
21240;BME280;10778;48.962;9.018;2023-02-13T09:23:06;101099.53;;;9.32;64.10
21240;BME280;10778;48.962;9.018;2023-02-13T09:25:32;101106.59;;;8.96;63.97
21240;BME280;10778;48.962;9.018;2023-02-13T09:27:58;101099.78;;;10.09;63.25
21240;BME280;10778;48.962;9.018;2023-02-13T09:30:24;101109.22;;;10.45;60.89
21240;BME280;10778;48.962;9.018;2023-02-13T09:32:52;101106.03;;;10.71;60.30
21240;BME280;10778;48.962;9.018;2023-02-13T09:35:19;101108.38;;;10.45;59.52
21240;BME280;10778;48.962;9.018;2023-02-13T09:37:45;101100.34;;;11.94;57.32
21240;BME280;10778;48.962;9.018;2023-02-13T09:40:26;101100.38;;;11.65;57.23
21240;BME280;10778;48.962;9.018;2023-02-13T09:43:04;101103.38;;;11.88;56.56
21240;BME280;10778;48.962;9.018;2023-02-13T09:45:31;101095.09;;;11.94;57.08
21240;BME280;10778;48.962;9.018;2023-02-13T09:47:58;101112.25;;;11.29;58.19
21240;BME280;10778;48.962;9.018;2023-02-13T09:50:29;101106.59;;;11.50;58.35
21240;BME280;10778;48.962;9.018;2023-02-13T09:52:57;101105.16;;;11.88;56.86
21240;BME280;10778;48.962;9.018;2023-02-13T09:55:46;101101.16;;;12.24;56.26
21240;BME280;10778;48.962;9.018;2023-02-13T10:01:05;101112.44;;;11.55;58.83
21240;BME280;10778;48.962;9.018;2023-02-13T10:03:45;101102.28;;;11.63;57.69
21240;BME280;10778;48.962;9.018;2023-02-13T10:06:25;101102.72;;;11.85;57.93
21240;BME280;10778;48.962;9.018;2023-02-13T10:16:50;101103.78;;;12.24;57.56
21240;BME280;10778;48.962;9.018;2023-02-13T10:19:56;101111.47;;;12.42;55.76
21240;BME280;10778;48.962;9.018;2023-02-13T10:22:48;101099.84;;;12.98;54.49
21240;BME280;10778;48.962;9.018;2023-02-13T10:25:42;101091.25;;;12.68;55.61
21240;BME280;10778;48.962;9.018;2023-02-13T10:28:23;101088.16;;;12.61;55.61
21240;BME280;10778;48.962;9.018;2023-02-13T10:30:55;101082.09;;;13.00;55.45
21240;BME280;10778;48.962;9.018;2023-02-13T10:33:37;101087.94;;;12.51;55.70
21240;BME280;10778;48.962;9.018;2023-02-13T10:38:40;101081.06;;;11.79;57.33
21240;BME280;10778;48.962;9.018;2023-02-13T10:41:23;101079.28;;;12.49;55.69
21240;BME280;10778;48.962;9.018;2023-02-13T10:44:08;101074.22;;;12.59;57.07
21240;BME280;10778;48.962;9.018;2023-02-13T10:46:58;101067.63;;;12.79;56.03
21240;BME280;10778;48.962;9.018;2023-02-13T10:58:19;101069.31;;;11.98;57.73
21240;BME280;10778;48.962;9.018;2023-02-13T11:00:59;101067.00;;;12.08;57.46
21240;BME280;10778;48.962;9.018;2023-02-13T11:03:29;101065.16;;;12.23;57.61
21240;BME280;10778;48.962;9.018;2023-02-13T11:05:57;101064.47;;;11.92;57.94
21240;BME280;10778;48.962;9.018;2023-02-13T11:08:32;101060.28;;;11.75;58.68
21240;BME280;10778;48.962;9.018;2023-02-13T11:10:58;101058.22;;;12.07;57.33
21240;BME280;10778;48.962;9.018;2023-02-13T11:13:26;101050.09;;;12.11;57.86
21240;BME280;10778;48.962;9.018;2023-02-13T11:16:04;101052.00;;;11.94;58.92
21240;BME280;10778;48.962;9.018;2023-02-13T11:18:33;101045.88;;;11.66;58.02
21240;BME280;10778;48.962;9.018;2023-02-13T11:21:07;101048.78;;;11.03;60.08
21240;BME280;10778;48.962;9.018;2023-02-13T11:23:42;101047.47;;;11.69;58.97
21240;BME280;10778;48.962;9.018;2023-02-13T11:26:13;101050.22;;;11.67;59.92
21240;BME280;10778;48.962;9.018;2023-02-13T11:28:55;101046.94;;;11.34;59.47
21240;BME280;10778;48.962;9.018;2023-02-13T11:31:32;101048.59;;;11.64;58.28
21240;BME280;10778;48.962;9.018;2023-02-13T11:33:59;101048.69;;;10.90;61.32
21240;BME280;10778;48.962;9.018;2023-02-13T11:36:42;101049.53;;;10.76;60.75
21240;BME280;10778;48.962;9.018;2023-02-13T11:39:18;101051.84;;;10.36;62.14
21240;BME280;10778;48.962;9.018;2023-02-13T11:41:45;101050.09;;;10.35;61.74
21240;BME280;10778;48.962;9.018;2023-02-13T11:44:31;101052.22;;;10.14;62.97
21240;BME280;10778;48.962;9.018;2023-02-13T11:46:59;101051.78;;;10.21;62.52
21240;BME280;10778;48.962;9.018;2023-02-13T11:49:28;101052.16;;;10.30;62.13
21240;BME280;10778;48.962;9.018;2023-02-13T11:52:01;101046.00;;;9.66;64.18
21240;BME280;10778;48.962;9.018;2023-02-13T11:54:34;101053.19;;;9.47;64.24
21240;BME280;10778;48.962;9.018;2023-02-13T11:59:48;101050.66;;;10.25;64.08
21240;BME280;10778;48.962;9.018;2023-02-13T12:02:15;101041.13;;;10.39;62.06
21240;BME280;10778;48.962;9.018;2023-02-13T12:04:42;101042.56;;;10.75;62.06
21240;BME280;10778;48.962;9.018;2023-02-13T12:09:54;101039.94;;;10.29;61.75
21240;BME280;10778;48.962;9.018;2023-02-13T12:12:38;101044.41;;;9.96;62.82
21240;BME280;10778;48.962;9.018;2023-02-13T12:15:17;101036.94;;;10.35;61.98
21240;BME280;10778;48.962;9.018;2023-02-13T12:17:46;101033.03;;;10.58;61.83
21240;BME280;10778;48.962;9.018;2023-02-13T12:20:16;101026.81;;;10.45;61.31
21240;BME280;10778;48.962;9.018;2023-02-13T12:23:06;101028.13;;;10.52;62.36
21240;BME280;10778;48.962;9.018;2023-02-13T12:25:39;101027.22;;;10.67;60.49
21240;BME280;10778;48.962;9.018;2023-02-13T12:28:15;101015.84;;;10.67;60.03
21240;BME280;10778;48.962;9.018;2023-02-13T12:36:35;101009.09;;;10.77;59.52
21240;BME280;10778;48.962;9.018;2023-02-13T12:39:27;101008.34;;;11.19;58.62
21240;BME280;10778;48.962;9.018;2023-02-13T12:42:03;101007.78;;;10.85;58.72
21240;BME280;10778;48.962;9.018;2023-02-13T12:44:57;101009.97;;;10.47;59.40
21240;BME280;10778;48.962;9.018;2023-02-13T12:50:22;101000.25;;;11.36;59.37
21240;BME280;10778;48.962;9.018;2023-02-13T12:56:25;101009.78;;;11.66;58.02
21240;BME280;10778;48.962;9.018;2023-02-13T12:58:58;100997.19;;;11.99;57.25
21240;BME280;10778;48.962;9.018;2023-02-13T13:04:18;100993.31;;;12.05;56.54
21240;BME280;10778;48.962;9.018;2023-02-13T13:12:09;100999.91;;;11.70;57.79
21240;BME280;10778;48.962;9.018;2023-02-13T13:15:04;100985.75;;;11.86;57.90
21240;BME280;10778;48.962;9.018;2023-02-13T13:23:17;100980.72;;;12.49;55.94
21240;BME280;10778;48.962;9.018;2023-02-13T13:28:23;100981.34;;;12.27;55.78
21240;BME280;10778;48.962;9.018;2023-02-13T13:30:52;100982.91;;;12.16;55.89
21240;BME280;10778;48.962;9.018;2023-02-13T13:33:23;100976.31;;;12.62;56.33
21240;BME280;10778;48.962;9.018;2023-02-13T13:41:19;100978.31;;;12.85;54.34
21240;BME280;10778;48.962;9.018;2023-02-13T13:51:50;100971.13;;;12.87;54.06
21240;BME280;10778;48.962;9.018;2023-02-13T13:54:18;100966.91;;;12.45;55.05
21240;BME280;10778;48.962;9.018;2023-02-13T14:07:37;100976.59;;;12.19;56.00
21240;BME280;10778;48.962;9.018;2023-02-13T14:10:04;100966.38;;;12.00;56.34
21240;BME280;10778;48.962;9.018;2023-02-13T14:14:58;100954.88;;;11.73;58.21
21240;BME280;10778;48.962;9.018;2023-02-13T14:20:21;100957.91;;;11.94;57.91
21240;BME280;10778;48.962;9.018;2023-02-13T14:22:47;100956.88;;;12.25;57.09
21240;BME280;10778;48.962;9.018;2023-02-13T14:25:24;100957.31;;;12.44;56.19
21240;BME280;10778;48.962;9.018;2023-02-13T14:28:04;100959.50;;;12.37;55.70
21240;BME280;10778;48.962;9.018;2023-02-13T14:30:33;100955.28;;;12.48;57.73
21240;BME280;10778;48.962;9.018;2023-02-13T14:33:04;100952.66;;;12.61;57.13
21240;BME280;10778;48.962;9.018;2023-02-13T14:35:36;100950.81;;;12.22;56.18
21240;BME280;10778;48.962;9.018;2023-02-13T14:38:20;100946.84;;;12.82;55.38
21240;BME280;10778;48.962;9.018;2023-02-13T14:40:52;100951.28;;;12.55;56.38
21240;BME280;10778;48.962;9.018;2023-02-13T14:43:26;100955.19;;;12.88;54.85
21240;BME280;10778;48.962;9.018;2023-02-13T14:46:21;100947.50;;;12.85;54.80
21240;BME280;10778;48.962;9.018;2023-02-13T14:49:00;100946.41;;;12.49;56.05
21240;BME280;10778;48.962;9.018;2023-02-13T14:52:06;100940.22;;;12.63;55.58
21240;BME280;10778;48.962;9.018;2023-02-13T14:54:41;100932.69;;;12.44;55.66
21240;BME280;10778;48.962;9.018;2023-02-13T14:57:24;100937.97;;;12.31;56.17
21240;BME280;10778;48.962;9.018;2023-02-13T14:59:57;100929.94;;;12.58;56.48
21240;BME280;10778;48.962;9.018;2023-02-13T15:02:32;100933.09;;;12.63;55.97
21240;BME280;10778;48.962;9.018;2023-02-13T15:05:09;100938.59;;;12.99;55.33
21240;BME280;10778;48.962;9.018;2023-02-13T15:07:44;100922.41;;;12.91;55.44
21240;BME280;10778;48.962;9.018;2023-02-13T15:10:35;100932.44;;;12.99;54.69
21240;BME280;10778;48.962;9.018;2023-02-13T15:13:16;100932.91;;;12.79;55.14
21240;BME280;10778;48.962;9.018;2023-02-13T15:15:49;100920.00;;;12.49;55.95
21240;BME280;10778;48.962;9.018;2023-02-13T15:18:23;100919.19;;;12.61;55.33
21240;BME280;10778;48.962;9.018;2023-02-13T15:20:52;100915.97;;;12.17;56.68
21240;BME280;10778;48.962;9.018;2023-02-13T15:23:22;100920.09;;;12.21;56.75
21240;BME280;10778;48.962;9.018;2023-02-13T15:25:58;100915.66;;;12.09;56.98
21240;BME280;10778;48.962;9.018;2023-02-13T15:28:26;100910.94;;;11.87;58.37